sensor_id;sensor_type;location;lat;lon;timestamp;P1;durP1;ratioP1;P2;durP2;ratioP2
67508;SDS011;54354;44.724;11.284;2022-11-15T00:00:07;114.07;;;54.90;;
67508;SDS011;54354;44.724;11.284;2022-11-15T00:02:52;109.68;;;55.88;;
67508;SDS011;54354;44.724;11.284;2022-11-15T00:05:36;109.53;;;54.60;;
67508;SDS011;54354;44.724;11.284;2022-11-15T00:08:21;115.03;;;57.20;;
67508;SDS011;54354;44.724;11.284;2022-11-15T00:11:05;108.70;;;55.08;;
67508;SDS011;54354;44.724;11.284;2022-11-15T00:13:49;104.75;;;55.20;;
67508;SDS011;54354;44.724;11.284;2022-11-15T00:16:33;119.18;;;58.63;;
67508;SDS011;54354;44.724;11.284;2022-11-15T00:19:17;113.18;;;56.47;;
67508;SDS011;54354;44.724;11.284;2022-11-15T00:22:01;116.63;;;57.55;;
67508;SDS011;54354;44.724;11.284;2022-11-15T00:24:45;106.93;;;53.40;;
67508;SDS011;54354;44.724;11.284;2022-11-15T00:27:29;107.40;;;54.70;;
67508;SDS011;54354;44.724;11.284;2022-11-15T00:30:13;104.85;;;53.20;;
67508;SDS011;54354;44.724;11.284;2022-11-15T00:33:00;102.53;;;52.30;;
67508;SDS011;54354;44.724;11.284;2022-11-15T00:35:45;94.43;;;50.38;;
67508;SDS011;54354;44.724;11.284;2022-11-15T00:38:30;98.78;;;50.67;;
67508;SDS011;54354;44.724;11.284;2022-11-15T00:41:17;97.35;;;49.50;;
67508;SDS011;54354;44.724;11.284;2022-11-15T00:44:01;88.05;;;46.00;;
67508;SDS011;54354;44.724;11.284;2022-11-15T00:46:45;84.97;;;45.78;;
67508;SDS011;54354;44.724;11.284;2022-11-15T00:49:29;73.60;;;41.97;;
67508;SDS011;54354;44.724;11.284;2022-11-15T00:52:13;77.57;;;41.42;;
67508;SDS011;54354;44.724;11.284;2022-11-15T00:54:57;72.70;;;40.88;;
67508;SDS011;54354;44.724;11.284;2022-11-15T00:57:41;73.88;;;40.58;;
67508;SDS011;54354;44.724;11.284;2022-11-15T01:00:25;71.07;;;40.65;;
67508;SDS011;54354;44.724;11.284;2022-11-15T01:03:09;67.10;;;38.97;;
67508;SDS011;54354;44.724;11.284;2022-11-15T01:05:53;70.65;;;39.60;;
67508;SDS011;54354;44.724;11.284;2022-11-15T01:08:40;67.45;;;38.45;;
67508;SDS011;54354;44.724;11.284;2022-11-15T01:11:24;61.40;;;36.95;;
67508;SDS011;54354;44.724;11.284;2022-11-15T01:14:08;65.65;;;39.08;;
67508;SDS011;54354;44.724;11.284;2022-11-15T01:16:52;61.90;;;36.92;;
67508;SDS011;54354;44.724;11.284;2022-11-15T01:19:35;63.85;;;36.88;;
67508;SDS011;54354;44.724;11.284;2022-11-15T01:22:20;64.38;;;38.78;;
67508;SDS011;54354;44.724;11.284;2022-11-15T01:25:04;64.47;;;37.75;;
67508;SDS011;54354;44.724;11.284;2022-11-15T01:27:48;67.13;;;38.38;;
67508;SDS011;54354;44.724;11.284;2022-11-15T01:30:31;62.92;;;37.22;;
67508;SDS011;54354;44.724;11.284;2022-11-15T01:33:15;66.72;;;38.28;;
67508;SDS011;54354;44.724;11.284;2022-11-15T01:36:02;61.85;;;36.63;;
67508;SDS011;54354;44.724;11.284;2022-11-15T01:38:54;64.60;;;36.97;;
67508;SDS011;54354;44.724;11.284;2022-11-15T01:41:39;61.00;;;35.35;;
67508;SDS011;54354;44.724;11.284;2022-11-15T01:47:37;60.65;;;36.33;;
67508;SDS011;54354;44.724;11.284;2022-11-15T01:50:26;57.75;;;35.72;;
67508;SDS011;54354;44.724;11.284;2022-11-15T01:53:14;54.90;;;33.95;;
67508;SDS011;54354;44.724;11.284;2022-11-15T01:56:00;51.13;;;32.28;;
67508;SDS011;54354;44.724;11.284;2022-11-15T01:58:48;47.08;;;30.83;;
67508;SDS011;54354;44.724;11.284;2022-11-15T02:01:33;50.17;;;31.70;;
67508;SDS011;54354;44.724;11.284;2022-11-15T02:04:37;46.30;;;29.23;;
67508;SDS011;54354;44.724;11.284;2022-11-15T02:07:27;47.30;;;30.42;;
67508;SDS011;54354;44.724;11.284;2022-11-15T02:10:16;43.60;;;28.50;;
67508;SDS011;54354;44.724;11.284;2022-11-15T02:16:29;46.63;;;29.52;;
67508;SDS011;54354;44.724;11.284;2022-11-15T02:34:52;40.72;;;26.52;;
67508;SDS011;54354;44.724;11.284;2022-11-15T02:43:33;39.13;;;27.10;;
67508;SDS011;54354;44.724;11.284;2022-11-15T02:46:50;41.28;;;27.38;;
67508;SDS011;54354;44.724;11.284;2022-11-15T02:49:58;44.50;;;28.42;;
67508;SDS011;54354;44.724;11.284;2022-11-15T02:52:45;43.28;;;27.52;;
67508;SDS011;54354;44.724;11.284;2022-11-15T02:58:25;42.20;;;27.35;;
67508;SDS011;54354;44.724;11.284;2022-11-15T03:07:10;41.80;;;27.15;;
67508;SDS011;54354;44.724;11.284;2022-11-15T03:10:06;42.85;;;27.15;;
67508;SDS011;54354;44.724;11.284;2022-11-15T03:12:56;39.58;;;26.15;;
67508;SDS011;54354;44.724;11.284;2022-11-15T03:19:02;38.17;;;25.92;;
67508;SDS011;54354;44.724;11.284;2022-11-15T03:21:53;41.13;;;25.85;;
67508;SDS011;54354;44.724;11.284;2022-11-15T03:24:39;40.80;;;27.08;;
67508;SDS011;54354;44.724;11.284;2022-11-15T03:27:28;41.40;;;26.17;;
67508;SDS011;54354;44.724;11.284;2022-11-15T03:30:19;40.20;;;25.75;;
67508;SDS011;54354;44.724;11.284;2022-11-15T03:33:03;38.05;;;25.15;;
67508;SDS011;54354;44.724;11.284;2022-11-15T03:35:48;41.55;;;27.58;;
67508;SDS011;54354;44.724;11.284;2022-11-15T03:38:34;37.95;;;25.05;;
67508;SDS011;54354;44.724;11.284;2022-11-15T03:41:22;38.13;;;25.42;;
67508;SDS011;54354;44.724;11.284;2022-11-15T03:47:28;36.85;;;24.02;;
67508;SDS011;54354;44.724;11.284;2022-11-15T03:50:20;35.08;;;24.23;;
67508;SDS011;54354;44.724;11.284;2022-11-15T03:53:06;38.13;;;25.07;;
67508;SDS011;54354;44.724;11.284;2022-11-15T03:55:50;36.88;;;24.42;;
67508;SDS011;54354;44.724;11.284;2022-11-15T03:58:34;36.17;;;24.45;;
67508;SDS011;54354;44.724;11.284;2022-11-15T04:01:18;35.80;;;24.58;;
67508;SDS011;54354;44.724;11.284;2022-11-15T04:04:02;34.47;;;23.95;;
67508;SDS011;54354;44.724;11.284;2022-11-15T04:06:46;38.38;;;24.75;;
67508;SDS011;54354;44.724;11.284;2022-11-15T04:09:30;36.60;;;24.05;;
67508;SDS011;54354;44.724;11.284;2022-11-15T04:12:14;35.53;;;23.33;;
67508;SDS011;54354;44.724;11.284;2022-11-15T04:15:15;35.97;;;24.27;;
67508;SDS011;54354;44.724;11.284;2022-11-15T04:18:01;33.83;;;23.75;;
67508;SDS011;54354;44.724;11.284;2022-11-15T04:20:45;36.03;;;23.30;;
67508;SDS011;54354;44.724;11.284;2022-11-15T04:23:48;34.58;;;24.02;;
67508;SDS011;54354;44.724;11.284;2022-11-15T04:26:50;34.95;;;24.40;;
67508;SDS011;54354;44.724;11.284;2022-11-15T04:29:35;32.58;;;23.02;;
67508;SDS011;54354;44.724;11.284;2022-11-15T04:32:19;34.22;;;23.38;;
67508;SDS011;54354;44.724;11.284;2022-11-15T04:35:03;37.58;;;23.98;;
67508;SDS011;54354;44.724;11.284;2022-11-15T04:37:47;35.38;;;22.50;;
67508;SDS011;54354;44.724;11.284;2022-11-15T04:40:31;37.50;;;23.10;;
67508;SDS011;54354;44.724;11.284;2022-11-15T04:43:15;31.50;;;21.98;;
67508;SDS011;54354;44.724;11.284;2022-11-15T04:45:59;38.85;;;23.63;;
67508;SDS011;54354;44.724;11.284;2022-11-15T04:48:43;31.65;;;21.45;;
67508;SDS011;54354;44.724;11.284;2022-11-15T04:51:27;33.03;;;22.25;;
67508;SDS011;54354;44.724;11.284;2022-11-15T04:54:11;35.35;;;22.05;;
67508;SDS011;54354;44.724;11.284;2022-11-15T04:56:55;32.80;;;22.10;;
67508;SDS011;54354;44.724;11.284;2022-11-15T04:59:39;33.05;;;22.20;;
67508;SDS011;54354;44.724;11.284;2022-11-15T05:02:23;33.08;;;22.25;;
67508;SDS011;54354;44.724;11.284;2022-11-15T05:05:07;33.85;;;22.40;;
67508;SDS011;54354;44.724;11.284;2022-11-15T05:07:51;31.05;;;20.63;;
67508;SDS011;54354;44.724;11.284;2022-11-15T05:10:35;30.05;;;20.58;;
67508;SDS011;54354;44.724;11.284;2022-11-15T05:13:20;29.20;;;20.17;;
67508;SDS011;54354;44.724;11.284;2022-11-15T05:16:04;32.88;;;22.33;;
67508;SDS011;54354;44.724;11.284;2022-11-15T05:18:51;31.73;;;20.77;;
67508;SDS011;54354;44.724;11.284;2022-11-15T05:21:36;34.55;;;20.98;;
67508;SDS011;54354;44.724;11.284;2022-11-15T05:24:21;34.10;;;22.27;;
67508;SDS011;54354;44.724;11.284;2022-11-15T05:27:05;32.70;;;22.58;;
67508;SDS011;54354;44.724;11.284;2022-11-15T05:29:49;36.08;;;22.45;;
67508;SDS011;54354;44.724;11.284;2022-11-15T05:32:33;33.65;;;23.50;;
67508;SDS011;54354;44.724;11.284;2022-11-15T05:35:30;32.88;;;22.33;;
67508;SDS011;54354;44.724;11.284;2022-11-15T05:38:19;31.75;;;22.13;;
67508;SDS011;54354;44.724;11.284;2022-11-15T05:41:03;36.05;;;23.73;;
67508;SDS011;54354;44.724;11.284;2022-11-15T05:43:48;36.80;;;22.85;;
67508;SDS011;54354;44.724;11.284;2022-11-15T05:46:33;36.65;;;23.27;;
67508;SDS011;54354;44.724;11.284;2022-11-15T05:49:20;35.22;;;23.85;;
67508;SDS011;54354;44.724;11.284;2022-11-15T05:52:08;39.25;;;24.45;;
67508;SDS011;54354;44.724;11.284;2022-11-15T05:54:54;36.22;;;24.58;;
67508;SDS011;54354;44.724;11.284;2022-11-15T05:57:40;40.00;;;24.30;;
67508;SDS011;54354;44.724;11.284;2022-11-15T06:00:24;39.38;;;24.63;;
67508;SDS011;54354;44.724;11.284;2022-11-15T06:03:09;38.28;;;24.30;;
67508;SDS011;54354;44.724;11.284;2022-11-15T06:05:53;40.38;;;24.58;;
67508;SDS011;54354;44.724;11.284;2022-11-15T06:08:37;35.67;;;24.35;;
67508;SDS011;54354;44.724;11.284;2022-11-15T06:11:21;37.72;;;25.00;;
67508;SDS011;54354;44.724;11.284;2022-11-15T06:14:05;41.15;;;23.80;;
67508;SDS011;54354;44.724;11.284;2022-11-15T06:16:49;38.92;;;24.88;;
67508;SDS011;54354;44.724;11.284;2022-11-15T06:19:32;35.92;;;23.73;;
67508;SDS011;54354;44.724;11.284;2022-11-15T06:22:16;40.80;;;25.20;;
67508;SDS011;54354;44.724;11.284;2022-11-15T06:25:01;40.88;;;23.90;;
67508;SDS011;54354;44.724;11.284;2022-11-15T06:27:50;42.88;;;25.10;;
67508;SDS011;54354;44.724;11.284;2022-11-15T06:33:19;41.55;;;24.30;;
67508;SDS011;54354;44.724;11.284;2022-11-15T06:36:03;39.92;;;24.27;;
67508;SDS011;54354;44.724;11.284;2022-11-15T06:38:48;38.38;;;24.88;;
67508;SDS011;54354;44.724;11.284;2022-11-15T06:41:35;41.42;;;25.17;;
67508;SDS011;54354;44.724;11.284;2022-11-15T06:44:20;35.47;;;23.70;;
67508;SDS011;54354;44.724;11.284;2022-11-15T06:47:04;37.28;;;24.38;;
67508;SDS011;54354;44.724;11.284;2022-11-15T06:49:48;41.03;;;24.98;;
67508;SDS011;54354;44.724;11.284;2022-11-15T06:52:32;40.20;;;24.45;;
67508;SDS011;54354;44.724;11.284;2022-11-15T06:55:16;45.90;;;24.98;;
67508;SDS011;54354;44.724;11.284;2022-11-15T06:58:00;43.85;;;26.50;;
67508;SDS011;54354;44.724;11.284;2022-11-15T07:00:44;44.88;;;26.15;;
67508;SDS011;54354;44.724;11.284;2022-11-15T07:03:28;42.97;;;25.10;;
67508;SDS011;54354;44.724;11.284;2022-11-15T07:06:12;40.15;;;25.85;;
67508;SDS011;54354;44.724;11.284;2022-11-15T07:08:56;39.72;;;25.42;;
67508;SDS011;54354;44.724;11.284;2022-11-15T07:11:41;43.42;;;25.77;;
67508;SDS011;54354;44.724;11.284;2022-11-15T07:14:25;42.88;;;24.88;;
67508;SDS011;54354;44.724;11.284;2022-11-15T07:17:09;44.05;;;25.65;;
67508;SDS011;54354;44.724;11.284;2022-11-15T07:19:53;41.25;;;25.13;;
67508;SDS011;54354;44.724;11.284;2022-11-15T07:22:37;44.03;;;25.10;;
67508;SDS011;54354;44.724;11.284;2022-11-15T07:25:21;44.17;;;26.55;;
67508;SDS011;54354;44.724;11.284;2022-11-15T07:28:05;51.78;;;26.77;;
67508;SDS011;54354;44.724;11.284;2022-11-15T07:30:49;47.28;;;26.38;;
67508;SDS011;54354;44.724;11.284;2022-11-15T07:33:34;41.00;;;24.88;;
67508;SDS011;54354;44.724;11.284;2022-11-15T07:36:19;41.67;;;24.90;;
67508;SDS011;54354;44.724;11.284;2022-11-15T07:39:03;43.50;;;25.25;;
67508;SDS011;54354;44.724;11.284;2022-11-15T07:41:47;46.55;;;26.25;;
67508;SDS011;54354;44.724;11.284;2022-11-15T07:44:32;51.28;;;27.65;;
67508;SDS011;54354;44.724;11.284;2022-11-15T07:47:16;54.08;;;28.75;;
67508;SDS011;54354;44.724;11.284;2022-11-15T07:50:01;44.80;;;28.65;;
67508;SDS011;54354;44.724;11.284;2022-11-15T07:52:45;42.53;;;24.98;;
67508;SDS011;54354;44.724;11.284;2022-11-15T07:55:29;41.92;;;24.02;;
67508;SDS011;54354;44.724;11.284;2022-11-15T07:58:13;33.97;;;23.15;;
67508;SDS011;54354;44.724;11.284;2022-11-15T08:00:57;35.40;;;22.50;;
67508;SDS011;54354;44.724;11.284;2022-11-15T08:03:41;36.00;;;23.27;;
67508;SDS011;54354;44.724;11.284;2022-11-15T08:06:25;38.58;;;24.02;;
67508;SDS011;54354;44.724;11.284;2022-11-15T08:09:09;37.15;;;24.05;;
67508;SDS011;54354;44.724;11.284;2022-11-15T08:11:53;45.83;;;24.13;;
67508;SDS011;54354;44.724;11.284;2022-11-15T08:14:37;37.92;;;24.45;;
67508;SDS011;54354;44.724;11.284;2022-11-15T08:17:22;37.17;;;22.08;;
67508;SDS011;54354;44.724;11.284;2022-11-15T08:20:07;37.47;;;22.80;;
67508;SDS011;54354;44.724;11.284;2022-11-15T08:22:52;37.60;;;24.50;;
67508;SDS011;54354;44.724;11.284;2022-11-15T08:25:36;40.47;;;24.83;;
67508;SDS011;54354;44.724;11.284;2022-11-15T08:28:21;38.97;;;25.50;;
67508;SDS011;54354;44.724;11.284;2022-11-15T08:31:05;42.78;;;27.05;;
67508;SDS011;54354;44.724;11.284;2022-11-15T08:33:49;39.70;;;25.23;;
67508;SDS011;54354;44.724;11.284;2022-11-15T08:36:33;44.08;;;27.10;;
67508;SDS011;54354;44.724;11.284;2022-11-15T08:39:17;45.72;;;27.63;;
67508;SDS011;54354;44.724;11.284;2022-11-15T08:42:01;41.13;;;27.77;;
67508;SDS011;54354;44.724;11.284;2022-11-15T08:44:45;43.83;;;27.58;;
67508;SDS011;54354;44.724;11.284;2022-11-15T08:47:29;47.72;;;28.30;;
67508;SDS011;54354;44.724;11.284;2022-11-15T08:50:14;47.83;;;28.52;;
67508;SDS011;54354;44.724;11.284;2022-11-15T08:53:03;48.03;;;28.63;;
67508;SDS011;54354;44.724;11.284;2022-11-15T08:55:51;47.13;;;29.70;;
67508;SDS011;54354;44.724;11.284;2022-11-15T08:58:36;46.08;;;29.23;;
67508;SDS011;54354;44.724;11.284;2022-11-15T09:01:21;51.20;;;30.80;;
67508;SDS011;54354;44.724;11.284;2022-11-15T09:04:05;52.22;;;30.40;;
67508;SDS011;54354;44.724;11.284;2022-11-15T09:06:50;49.63;;;31.67;;
67508;SDS011;54354;44.724;11.284;2022-11-15T09:09:34;56.05;;;32.10;;
67508;SDS011;54354;44.724;11.284;2022-11-15T09:12:18;57.72;;;33.67;;
67508;SDS011;54354;44.724;11.284;2022-11-15T09:15:02;49.08;;;31.25;;
67508;SDS011;54354;44.724;11.284;2022-11-15T09:17:47;52.72;;;32.20;;
67508;SDS011;54354;44.724;11.284;2022-11-15T09:20:31;53.95;;;32.58;;
67508;SDS011;54354;44.724;11.284;2022-11-15T09:23:15;52.58;;;32.10;;
67508;SDS011;54354;44.724;11.284;2022-11-15T09:26:00;59.95;;;33.50;;
67508;SDS011;54354;44.724;11.284;2022-11-15T09:28:46;53.38;;;32.65;;
67508;SDS011;54354;44.724;11.284;2022-11-15T09:31:30;56.30;;;33.50;;
67508;SDS011;54354;44.724;11.284;2022-11-15T09:34:14;63.20;;;34.60;;
67508;SDS011;54354;44.724;11.284;2022-11-15T09:36:59;60.13;;;33.63;;
67508;SDS011;54354;44.724;11.284;2022-11-15T09:39:43;56.20;;;33.03;;
67508;SDS011;54354;44.724;11.284;2022-11-15T09:42:34;55.53;;;33.47;;
67508;SDS011;54354;44.724;11.284;2022-11-15T09:51:34;59.63;;;33.63;;
67508;SDS011;54354;44.724;11.284;2022-11-15T09:54:21;55.88;;;33.72;;
67508;SDS011;54354;44.724;11.284;2022-11-15T09:56:47;61.47;;;35.20;;
67508;SDS011;54354;44.724;11.284;2022-11-15T10:04:46;55.63;;;34.65;;
67508;SDS011;54354;44.724;11.284;2022-11-15T10:12:54;58.67;;;34.58;;
67508;SDS011;54354;44.724;11.284;2022-11-15T10:15:20;56.25;;;34.17;;
67508;SDS011;54354;44.724;11.284;2022-11-15T10:20:57;72.75;;;36.72;;
67508;SDS011;54354;44.724;11.284;2022-11-15T10:23:31;63.92;;;37.90;;
67508;SDS011;54354;44.724;11.284;2022-11-15T10:25:57;60.55;;;36.25;;
67508;SDS011;54354;44.724;11.284;2022-11-15T10:28:28;66.45;;;38.38;;
67508;SDS011;54354;44.724;11.284;2022-11-15T10:30:56;64.80;;;37.30;;
67508;SDS011;54354;44.724;11.284;2022-11-15T10:33:35;62.88;;;37.55;;
67508;SDS011;54354;44.724;11.284;2022-11-15T10:38:45;63.80;;;37.45;;
67508;SDS011;54354;44.724;11.284;2022-11-15T10:44:07;69.30;;;38.72;;
67508;SDS011;54354;44.724;11.284;2022-11-15T10:46:42;66.55;;;38.90;;
67508;SDS011;54354;44.724;11.284;2022-11-15T10:51:45;68.90;;;39.15;;
67508;SDS011;54354;44.724;11.284;2022-11-15T10:54:17;78.18;;;40.58;;
67508;SDS011;54354;44.724;11.284;2022-11-15T10:56:54;66.40;;;38.45;;
67508;SDS011;54354;44.724;11.284;2022-11-15T10:59:29;65.80;;;37.67;;
67508;SDS011;54354;44.724;11.284;2022-11-15T11:01:56;66.30;;;38.30;;
67508;SDS011;54354;44.724;11.284;2022-11-15T11:04:22;66.10;;;38.67;;
67508;SDS011;54354;44.724;11.284;2022-11-15T11:06:52;68.28;;;39.83;;
67508;SDS011;54354;44.724;11.284;2022-11-15T11:09:23;64.38;;;37.70;;
67508;SDS011;54354;44.724;11.284;2022-11-15T11:11:58;69.00;;;39.00;;
67508;SDS011;54354;44.724;11.284;2022-11-15T11:14:25;68.18;;;38.47;;
67508;SDS011;54354;44.724;11.284;2022-11-15T11:22:14;60.60;;;37.40;;
67508;SDS011;54354;44.724;11.284;2022-11-15T11:30:20;63.97;;;36.65;;
67508;SDS011;54354;44.724;11.284;2022-11-15T11:33:12;58.33;;;34.97;;
67508;SDS011;54354;44.724;11.284;2022-11-15T11:35:39;60.17;;;36.55;;
67508;SDS011;54354;44.724;11.284;2022-11-15T11:38:34;63.20;;;36.45;;
67508;SDS011;54354;44.724;11.284;2022-11-15T11:43:58;68.78;;;37.80;;
67508;SDS011;54354;44.724;11.284;2022-11-15T11:51:47;64.18;;;38.53;;
67508;SDS011;54354;44.724;11.284;2022-11-15T11:54:22;63.17;;;37.67;;
67508;SDS011;54354;44.724;11.284;2022-11-15T11:56:59;63.33;;;37.58;;
67508;SDS011;54354;44.724;11.284;2022-11-15T12:05:09;69.25;;;39.70;;
67508;SDS011;54354;44.724;11.284;2022-11-15T12:07:41;70.63;;;40.40;;
67508;SDS011;54354;44.724;11.284;2022-11-15T12:10:18;69.53;;;40.17;;
67508;SDS011;54354;44.724;11.284;2022-11-15T12:15:31;67.00;;;38.25;;
67508;SDS011;54354;44.724;11.284;2022-11-15T12:18:01;64.50;;;39.10;;
67508;SDS011;54354;44.724;11.284;2022-11-15T12:20:28;68.03;;;39.10;;
67508;SDS011;54354;44.724;11.284;2022-11-15T12:23:11;71.35;;;39.75;;
67508;SDS011;54354;44.724;11.284;2022-11-15T12:25:45;67.90;;;38.58;;
67508;SDS011;54354;44.724;11.284;2022-11-15T12:36:03;64.32;;;38.97;;
67508;SDS011;54354;44.724;11.284;2022-11-15T12:38:51;65.13;;;38.47;;
67508;SDS011;54354;44.724;11.284;2022-11-15T12:41:23;71.38;;;39.92;;
67508;SDS011;54354;44.724;11.284;2022-11-15T12:43:53;74.28;;;40.28;;
67508;SDS011;54354;44.724;11.284;2022-11-15T12:46:24;67.03;;;40.78;;
67508;SDS011;54354;44.724;11.284;2022-11-15T12:49:53;66.53;;;39.85;;
67508;SDS011;54354;44.724;11.284;2022-11-15T13:02:20;77.93;;;42.30;;
67508;SDS011;54354;44.724;11.284;2022-11-15T13:17:57;61.45;;;36.35;;
67508;SDS011;54354;44.724;11.284;2022-11-15T13:20:23;64.20;;;37.83;;
67508;SDS011;54354;44.724;11.284;2022-11-15T13:22:53;67.35;;;38.33;;
67508;SDS011;54354;44.724;11.284;2022-11-15T13:33:15;71.80;;;40.63;;
67508;SDS011;54354;44.724;11.284;2022-11-15T13:35:45;64.50;;;38.22;;
67508;SDS011;54354;44.724;11.284;2022-11-15T13:38:22;69.40;;;38.38;;
67508;SDS011;54354;44.724;11.284;2022-11-15T13:48:36;69.75;;;38.88;;
67508;SDS011;54354;44.724;11.284;2022-11-15T13:51:02;71.97;;;39.63;;
67508;SDS011;54354;44.724;11.284;2022-11-15T13:53:40;71.60;;;39.28;;
67508;SDS011;54354;44.724;11.284;2022-11-15T13:56:14;72.47;;;39.33;;
67508;SDS011;54354;44.724;11.284;2022-11-15T13:58:42;73.75;;;40.30;;
67508;SDS011;54354;44.724;11.284;2022-11-15T14:01:08;75.72;;;40.83;;
67508;SDS011;54354;44.724;11.284;2022-11-15T14:03:46;83.30;;;42.55;;
67508;SDS011;54354;44.724;11.284;2022-11-15T14:06:15;79.55;;;41.47;;
67508;SDS011;54354;44.724;11.284;2022-11-15T14:08:57;78.05;;;42.72;;
67508;SDS011;54354;44.724;11.284;2022-11-15T14:11:29;81.78;;;42.92;;
67508;SDS011;54354;44.724;11.284;2022-11-15T14:14:28;82.18;;;43.00;;
67508;SDS011;54354;44.724;11.284;2022-11-15T14:16:48;81.30;;;43.95;;
67508;SDS011;54354;44.724;11.284;2022-11-15T14:27:29;84.40;;;43.85;;
67508;SDS011;54354;44.724;11.284;2022-11-15T14:29:54;87.60;;;44.03;;
67508;SDS011;54354;44.724;11.284;2022-11-15T14:32:21;85.75;;;44.63;;
67508;SDS011;54354;44.724;11.284;2022-11-15T14:34:53;81.18;;;43.75;;
67508;SDS011;54354;44.724;11.284;2022-11-15T14:39:47;95.60;;;48.38;;
67508;SDS011;54354;44.724;11.284;2022-11-15T14:42:14;91.68;;;46.00;;
67508;SDS011;54354;44.724;11.284;2022-11-15T14:44:39;103.75;;;49.17;;
67508;SDS011;54354;44.724;11.284;2022-11-15T14:47:05;87.80;;;44.40;;
67508;SDS011;54354;44.724;11.284;2022-11-15T14:49:30;92.28;;;46.33;;
67508;SDS011;54354;44.724;11.284;2022-11-15T14:51:56;91.25;;;47.10;;
67508;SDS011;54354;44.724;11.284;2022-11-15T14:54:22;93.00;;;44.90;;
67508;SDS011;54354;44.724;11.284;2022-11-15T14:56:48;88.63;;;46.53;;
67508;SDS011;54354;44.724;11.284;2022-11-15T14:59:13;82.72;;;42.28;;
67508;SDS011;54354;44.724;11.284;2022-11-15T15:01:38;81.68;;;41.58;;
67508;SDS011;54354;44.724;11.284;2022-11-15T15:04:04;81.32;;;42.03;;
67508;SDS011;54354;44.724;11.284;2022-11-15T15:06:30;84.65;;;44.30;;
67508;SDS011;54354;44.724;11.284;2022-11-15T15:08:56;84.10;;;43.08;;
67508;SDS011;54354;44.724;11.284;2022-11-15T15:11:22;78.60;;;40.55;;
67508;SDS011;54354;44.724;11.284;2022-11-15T15:13:49;82.22;;;43.17;;
67508;SDS011;54354;44.724;11.284;2022-11-15T15:16:16;75.03;;;40.13;;
67508;SDS011;54354;44.724;11.284;2022-11-15T15:18:41;84.45;;;41.47;;
67508;SDS011;54354;44.724;11.284;2022-11-15T15:21:16;82.60;;;41.45;;
67508;SDS011;54354;44.724;11.284;2022-11-15T15:23:45;87.47;;;42.80;;
67508;SDS011;54354;44.724;11.284;2022-11-15T15:26:10;85.68;;;43.55;;
67508;SDS011;54354;44.724;11.284;2022-11-15T15:28:36;86.93;;;43.15;;
67508;SDS011;54354;44.724;11.284;2022-11-15T15:31:03;91.03;;;43.55;;
67508;SDS011;54354;44.724;11.284;2022-11-15T15:33:29;92.25;;;44.30;;
67508;SDS011;54354;44.724;11.284;2022-11-15T15:35:54;86.35;;;43.90;;
67508;SDS011;54354;44.724;11.284;2022-11-15T15:38:20;88.68;;;45.90;;
67508;SDS011;54354;44.724;11.284;2022-11-15T15:40:46;92.45;;;45.95;;
67508;SDS011;54354;44.724;11.284;2022-11-15T15:43:12;92.82;;;45.38;;
67508;SDS011;54354;44.724;11.284;2022-11-15T15:45:38;92.00;;;45.38;;
67508;SDS011;54354;44.724;11.284;2022-11-15T15:48:05;91.95;;;44.50;;
67508;SDS011;54354;44.724;11.284;2022-11-15T15:50:34;92.38;;;44.40;;
67508;SDS011;54354;44.724;11.284;2022-11-15T15:53:00;91.60;;;44.15;;
67508;SDS011;54354;44.724;11.284;2022-11-15T15:55:27;95.53;;;44.65;;
67508;SDS011;54354;44.724;11.284;2022-11-15T15:57:54;90.57;;;44.53;;
67508;SDS011;54354;44.724;11.284;2022-11-15T16:00:20;88.00;;;43.88;;
67508;SDS011;54354;44.724;11.284;2022-11-15T16:02:48;89.60;;;43.92;;
67508;SDS011;54354;44.724;11.284;2022-11-15T16:05:13;91.93;;;45.33;;
67508;SDS011;54354;44.724;11.284;2022-11-15T16:07:39;93.90;;;44.30;;
67508;SDS011;54354;44.724;11.284;2022-11-15T16:12:51;90.15;;;44.40;;
67508;SDS011;54354;44.724;11.284;2022-11-15T16:15:18;95.55;;;45.70;;
67508;SDS011;54354;44.724;11.284;2022-11-15T16:17:51;92.22;;;44.05;;
67508;SDS011;54354;44.724;11.284;2022-11-15T16:23:05;91.05;;;44.22;;
67508;SDS011;54354;44.724;11.284;2022-11-15T16:25:51;88.00;;;41.85;;
67508;SDS011;54354;44.724;11.284;2022-11-15T16:28:21;88.90;;;43.53;;
67508;SDS011;54354;44.724;11.284;2022-11-15T16:30:58;84.97;;;43.47;;
67508;SDS011;54354;44.724;11.284;2022-11-15T16:33:25;91.55;;;43.47;;
67508;SDS011;54354;44.724;11.284;2022-11-15T16:35:51;92.65;;;43.15;;
67508;SDS011;54354;44.724;11.284;2022-11-15T16:38:16;91.80;;;44.65;;
67508;SDS011;54354;44.724;11.284;2022-11-15T16:40:42;91.40;;;42.97;;
67508;SDS011;54354;44.724;11.284;2022-11-15T16:43:08;86.72;;;42.58;;
67508;SDS011;54354;44.724;11.284;2022-11-15T16:45:34;84.25;;;42.30;;
67508;SDS011;54354;44.724;11.284;2022-11-15T16:48:00;82.28;;;42.67;;
67508;SDS011;54354;44.724;11.284;2022-11-15T16:50:27;90.63;;;43.50;;
67508;SDS011;54354;44.724;11.284;2022-11-15T16:52:59;93.75;;;44.75;;
67508;SDS011;54354;44.724;11.284;2022-11-15T16:55:26;90.80;;;44.85;;
67508;SDS011;54354;44.724;11.284;2022-11-15T16:57:53;90.40;;;43.75;;
67508;SDS011;54354;44.724;11.284;2022-11-15T17:00:20;91.47;;;44.58;;
67508;SDS011;54354;44.724;11.284;2022-11-15T17:02:48;97.70;;;46.63;;
67508;SDS011;54354;44.724;11.284;2022-11-15T17:05:15;92.80;;;44.47;;
67508;SDS011;54354;44.724;11.284;2022-11-15T17:07:43;92.55;;;45.25;;
67508;SDS011;54354;44.724;11.284;2022-11-15T17:10:13;97.93;;;46.60;;
67508;SDS011;54354;44.724;11.284;2022-11-15T17:12:38;99.65;;;46.70;;
67508;SDS011;54354;44.724;11.284;2022-11-15T17:15:04;103.07;;;46.80;;
67508;SDS011;54354;44.724;11.284;2022-11-15T17:17:30;93.47;;;45.92;;
67508;SDS011;54354;44.724;11.284;2022-11-15T17:19:56;89.65;;;44.60;;
67508;SDS011;54354;44.724;11.284;2022-11-15T17:22:22;90.60;;;46.22;;
67508;SDS011;54354;44.724;11.284;2022-11-15T17:24:48;94.72;;;47.20;;
67508;SDS011;54354;44.724;11.284;2022-11-15T17:27:13;96.40;;;48.70;;
67508;SDS011;54354;44.724;11.284;2022-11-15T17:29:39;93.93;;;46.38;;
67508;SDS011;54354;44.724;11.284;2022-11-15T17:32:06;88.63;;;44.78;;
67508;SDS011;54354;44.724;11.284;2022-11-15T17:34:32;97.75;;;45.53;;
67508;SDS011;54354;44.724;11.284;2022-11-15T17:36:57;100.30;;;47.08;;
67508;SDS011;54354;44.724;11.284;2022-11-15T17:39:23;98.45;;;47.25;;
67508;SDS011;54354;44.724;11.284;2022-11-15T17:41:49;93.93;;;47.38;;
67508;SDS011;54354;44.724;11.284;2022-11-15T17:44:15;87.95;;;44.47;;
67508;SDS011;54354;44.724;11.284;2022-11-15T17:46:41;95.72;;;47.05;;
67508;SDS011;54354;44.724;11.284;2022-11-15T17:49:07;97.35;;;45.63;;
67508;SDS011;54354;44.724;11.284;2022-11-15T17:51:33;93.80;;;45.35;;
67508;SDS011;54354;44.724;11.284;2022-11-15T17:53:58;101.30;;;47.65;;
67508;SDS011;54354;44.724;11.284;2022-11-15T17:56:25;101.88;;;47.33;;
67508;SDS011;54354;44.724;11.284;2022-11-15T17:59:00;99.72;;;46.30;;